ムルマンスク の空港の天気 - METARとTAF

ムルマンスク空港 ( ULMM / MMK ) - ロシア ムルマンスク
飛行場実況気象(Metar)
観測時間07/17 12:00 MSK (07/17 09:00 UTC)
風向・風速西 3m/s
視程10km以上
天気現象
なし
気温27℃
湿度39%
気圧1020hPa
METARULMM 170900Z 27003MPS 230V320 CAVOK 27/12 Q1020 R31/090070 NOSIG RMK QFE758
過去の天気等 Google飛行場航空写真 Wunderground天気予報

過去48時間のMETAR

飛行場予報(TAF)
発表時間: 7/17 11:00 MSK (7/17 08:00 UTC)
予報対象時間: 17日12時 MSK ~ 18日12時 MSK
風向・風速南西 3m/s 瞬間風速 9m/s
視程10km以上
全天の4割程度の雲 雲底高度 460m
17日12時 MSK ~ 17日17時 MSK に一時的に
風向・風速西 3m/s 瞬間風速 9m/s
17日17時 MSK ~ 17日19時 MSK に徐々に
風向・風速南 3m/s 瞬間風速 9m/s
17日19時 MSK ~ 17日24時 MSK に一時的に
風向・風速南西 3m/s 瞬間風速 9m/s
18日0時 MSK ~ 18日12時 MSK に一時的に
風向・風速南西 3m/s
視程3100m
天気現象弱いしゅう雨 もや
全天の8割程度の雲 雲底高度 340m
全天の8割程度の積乱雲 雲底高度 460m
TAF ULMM 170800Z 1709/1809 23003G09MPS 9999 SCT015
TEMPO 1709/1714 28003G09MPS
BECMG 1714/1716 18003G09MPS
TEMPO 1716/1721 23003G09MPS
TEMPO 1721/1809 23003MPS 3100 -SHRA BR BKN011 BKN015CB